Miraguai, Brazil
Current Conditions -  °F | °C
As of 2:00 AM on Wednesday 26 Nov 2014 (Local Time) from SBCH Reporting Station
Few Clouds Few Clouds  
Wind Chill: 64°   Ceiling: Unl
Heat Index: 64°   Visibility: 6mi
Dew Point: 64°   Wind: 7mph
Humidity: 100%   Direction: 80°E
Pressure: 29.8"   Gusts: NA
Location:  27.49°S, 53.69°W
Report Text: SBCH 260400Z 08006KT 9999 FEW002 18/18 Q1009
Loading
Personal Weather Stations






























Interactive Weather Map New forecast layout! Learn more

10-Day Weather Forecast

Advertisements
Track Severe Weather on mobile